createdAt,value
2023-01-29T00:02:05.717Z,70.32
2023-01-29T00:04:34.152Z,70.29
2023-01-29T00:07:01.847Z,70.29
2023-01-29T00:09:29.513Z,70.23
2023-01-29T00:11:57.342Z,70.32
2023-01-29T00:14:27.279Z,70.35
2023-01-29T00:16:55.148Z,70.35
2023-01-29T00:19:23.180Z,70.44
2023-01-29T00:21:50.816Z,70.52
2023-01-29T00:24:18.542Z,70.61
2023-01-29T00:26:46.148Z,70.66
2023-01-29T00:29:13.881Z,70.67
2023-01-29T00:31:45.137Z,70.76
2023-01-29T00:34:12.950Z,70.71
2023-01-29T00:36:40.651Z,70.77
2023-01-29T00:39:11.033Z,70.83
2023-01-29T00:41:54.874Z,70.92
2023-01-29T00:44:38.489Z,70.90
2023-01-29T00:47:26.949Z,70.88
2023-01-29T00:49:55.057Z,70.85
2023-01-29T00:52:24.060Z,70.87
2023-01-29T00:55:00.162Z,70.94
2023-01-29T00:57:30.026Z,70.97
2023-01-29T00:59:58.083Z,70.94
2023-01-29T01:02:42.526Z,70.85
2023-01-29T01:05:14.182Z,70.82
2023-01-29T01:07:41.950Z,70.81
2023-01-29T01:10:21.558Z,70.86
2023-01-29T01:12:58.365Z,70.91
2023-01-29T01:15:32.277Z,70.82
2023-01-29T01:18:01.807Z,70.80
2023-01-29T01:20:32.496Z,70.87
2023-01-29T01:23:00.128Z,70.87
2023-01-29T01:25:27.831Z,70.93
2023-01-29T01:30:27.951Z,70.89
2023-01-29T01:32:55.636Z,70.94
2023-01-29T01:35:23.381Z,70.88
2023-01-29T01:37:51.063Z,70.74
2023-01-29T01:40:22.643Z,70.86
2023-01-29T01:42:53.411Z,70.94
2023-01-29T01:45:26.215Z,70.99
2023-01-29T01:48:03.839Z,70.99
2023-01-29T01:50:53.333Z,70.95
2023-01-29T01:53:30.529Z,71.06
2023-01-29T01:56:12.344Z,70.98
2023-01-29T01:58:50.310Z,70.98
2023-01-29T02:01:21.273Z,71.14
2023-01-29T02:04:14.211Z,70.96
2023-01-29T02:06:59.070Z,70.99
2023-01-29T02:09:35.688Z,70.87
2023-01-29T02:12:09.665Z,70.91
2023-01-29T02:14:40.227Z,70.84
2023-01-29T02:17:14.174Z,70.88
2023-01-29T02:19:53.144Z,70.87
2023-01-29T02:22:33.047Z,70.89
2023-01-29T02:25:16.615Z,70.99
2023-01-29T02:28:00.190Z,71.02
2023-01-29T02:30:36.414Z,71.07
2023-01-29T02:33:11.047Z,71.06
2023-01-29T02:35:49.089Z,71.07
2023-01-29T02:38:27.349Z,71.00
2023-01-29T02:41:10.886Z,71.03
2023-01-29T02:43:47.476Z,71.08
2023-01-29T02:46:27.562Z,70.99
2023-01-29T02:49:23.261Z,71.00
2023-01-29T02:51:59.671Z,71.10
2023-01-29T02:54:45.184Z,71.06
2023-01-29T02:57:34.749Z,71.07
2023-01-29T03:00:09.067Z,71.04
2023-01-29T03:02:51.606Z,71.00
2023-01-29T03:05:43.401Z,70.97
2023-01-29T03:08:18.526Z,71.10
2023-01-29T03:10:59.359Z,71.11
2023-01-29T03:14:03.346Z,71.06
2023-01-29T03:16:53.512Z,71.07
2023-01-29T03:19:40.989Z,71.09
2023-01-29T03:22:13.637Z,71.09
2023-01-29T03:25:05.900Z,71.15
2023-01-29T03:27:56.899Z,71.21
2023-01-29T03:30:45.356Z,71.21
2023-01-29T03:33:17.291Z,71.14
2023-01-29T03:35:53.102Z,71.21
2023-01-29T03:38:20.891Z,71.17
2023-01-29T03:41:23.090Z,71.17
2023-01-29T03:44:10.863Z,71.22
2023-01-29T03:46:56.530Z,71.17
2023-01-29T03:49:43.869Z,71.30
2023-01-29T03:52:34.943Z,71.31
2023-01-29T03:55:10.932Z,71.20
2023-01-29T03:58:00.900Z,71.22
2023-01-29T04:00:32.805Z,71.18
2023-01-29T04:03:08.757Z,71.16
2023-01-29T04:05:48.197Z,71.19
2023-01-29T04:08:23.817Z,71.17
2023-01-29T04:10:56.602Z,71.28
2023-01-29T04:13:25.584Z,71.33
2023-01-29T04:15:58.082Z,71.40
2023-01-29T04:18:25.771Z,71.59
2023-01-29T04:20:53.952Z,71.58
2023-01-29T04:23:25.507Z,71.62
2023-01-29T04:26:29.362Z,71.72
2023-01-29T04:29:19.012Z,71.77
2023-01-29T04:32:09.610Z,71.74
2023-01-29T04:34:53.682Z,71.76
2023-01-29T04:37:43.980Z,71.85
2023-01-29T04:40:32.191Z,71.74
2023-01-29T04:43:29.700Z,71.85
2023-01-29T04:46:39.621Z,71.80
2023-01-29T04:49:20.902Z,71.74
2023-01-29T04:52:13.764Z,71.80
2023-01-29T04:54:51.805Z,71.75
2023-01-29T04:57:28.329Z,71.87
2023-01-29T05:00:07.265Z,71.88
2023-01-29T05:02:39.374Z,71.84
2023-01-29T05:05:09.542Z,72.15
2023-01-29T05:07:39.369Z,72.11
2023-01-29T05:10:10.620Z,72.18
2023-01-29T05:12:39.566Z,72.17
2023-01-29T05:15:15.557Z,72.28
2023-01-29T05:17:43.344Z,72.30
2023-01-29T05:20:11.914Z,72.32
2023-01-29T05:22:42.536Z,72.44
2023-01-29T05:25:22.615Z,72.47
2023-01-29T05:28:07.995Z,72.67
2023-01-29T05:30:38.053Z,72.73
2023-01-29T05:33:15.284Z,72.67
2023-01-29T05:35:43.028Z,72.77
2023-01-29T05:38:10.742Z,72.90
2023-01-29T05:40:38.433Z,72.83
2023-01-29T05:43:11.803Z,72.99
2023-01-29T05:45:39.450Z,73.11
2023-01-29T05:48:07.062Z,73.17
2023-01-29T05:50:34.690Z,73.23
2023-01-29T05:53:02.722Z,73.13
2023-01-29T05:55:30.422Z,73.24
2023-01-29T05:57:58.059Z,73.31
2023-01-29T06:00:25.861Z,73.52
2023-01-29T06:02:53.599Z,73.35
2023-01-29T06:05:21.421Z,73.53
2023-01-29T06:07:49.089Z,73.47
2023-01-29T06:10:18.773Z,73.47
2023-01-29T06:12:47.043Z,73.61
2023-01-29T06:15:19.699Z,73.57
2023-01-29T06:17:47.357Z,73.64
2023-01-29T06:20:15.579Z,73.70
2023-01-29T06:22:43.457Z,73.68
2023-01-29T06:25:11.117Z,73.64
2023-01-29T06:27:38.721Z,73.78
2023-01-29T06:30:07.793Z,73.74
2023-01-29T06:32:35.599Z,73.84
2023-01-29T06:35:04.111Z,73.76
2023-01-29T06:37:31.720Z,73.90
2023-01-29T06:39:59.342Z,73.94
2023-01-29T06:42:28.212Z,73.91
2023-01-29T06:44:56.807Z,73.93
2023-01-29T06:47:24.796Z,73.89
2023-01-29T06:49:52.408Z,73.83
2023-01-29T06:52:20.060Z,73.92
2023-01-29T06:54:47.715Z,73.86
2023-01-29T06:57:15.567Z,73.97
2023-01-29T06:59:43.165Z,73.97
2023-01-29T07:02:11.064Z,73.97
2023-01-29T07:04:39.259Z,74.01
2023-01-29T07:07:13.155Z,74.02
2023-01-29T07:09:41.869Z,74.06
2023-01-29T07:12:10.632Z,74.17
2023-01-29T07:14:38.262Z,74.11
2023-01-29T07:17:05.961Z,74.14
2023-01-29T07:19:33.623Z,74.10
2023-01-29T07:22:03.233Z,74.22
2023-01-29T07:24:30.965Z,74.14
2023-01-29T07:26:58.731Z,74.14
2023-01-29T07:29:26.510Z,74.14
2023-01-29T07:31:54.263Z,74.05
2023-01-29T07:34:22.065Z,74.12
2023-01-29T07:36:52.538Z,74.20
2023-01-29T07:39:20.140Z,74.24
2023-01-29T07:41:47.772Z,74.26
2023-01-29T07:44:15.362Z,74.35
2023-01-29T07:46:43.703Z,74.20
2023-01-29T07:49:11.390Z,74.24
2023-01-29T07:51:39.029Z,74.38
2023-01-29T07:54:06.738Z,74.36
2023-01-29T07:56:34.332Z,74.39
2023-01-29T07:59:01.955Z,74.42
2023-01-29T08:01:29.600Z,74.39
2023-01-29T08:03:57.617Z,74.34
2023-01-29T08:06:25.416Z,74.44
2023-01-29T08:08:53.536Z,74.40
2023-01-29T08:11:21.186Z,74.33
2023-01-29T08:13:48.789Z,74.33
2023-01-29T08:16:16.745Z,74.41
2023-01-29T08:18:47.650Z,74.43
2023-01-29T08:21:15.851Z,74.48
2023-01-29T08:23:43.552Z,74.45
2023-01-29T08:26:11.302Z,74.57
2023-01-29T08:28:38.994Z,74.38
2023-01-29T08:31:16.279Z,74.55
2023-01-29T08:33:43.987Z,74.31
2023-01-29T08:36:11.976Z,74.47
2023-01-29T08:38:41.294Z,74.58
2023-01-29T08:41:08.926Z,74.61
2023-01-29T08:43:40.571Z,74.66
2023-01-29T08:46:08.611Z,74.60
2023-01-29T08:48:36.316Z,74.72
2023-01-29T08:51:04.735Z,74.48
2023-01-29T08:53:33.267Z,74.58
2023-01-29T08:56:01.353Z,74.44
2023-01-29T08:58:29.233Z,74.47
2023-01-29T09:00:56.897Z,74.62
2023-01-29T09:03:24.606Z,74.42
2023-01-29T09:05:52.247Z,74.40
2023-01-29T09:08:19.870Z,74.30
2023-01-29T09:10:47.476Z,74.39
2023-01-29T09:13:15.117Z,74.26
2023-01-29T09:15:42.838Z,74.21
2023-01-29T09:18:10.828Z,74.34
2023-01-29T09:20:38.873Z,74.40
2023-01-29T09:23:08.327Z,74.33
2023-01-29T09:25:37.306Z,74.32
2023-01-29T09:28:06.230Z,74.37
2023-01-29T09:30:37.500Z,74.45
2023-01-29T09:33:06.645Z,74.28
2023-01-29T09:35:34.997Z,74.39
2023-01-29T09:38:02.670Z,74.38
2023-01-29T09:40:39.497Z,74.48
2023-01-29T09:43:14.046Z,74.64
2023-01-29T09:45:52.185Z,74.63
2023-01-29T09:48:22.064Z,74.48
2023-01-29T09:50:55.145Z,74.63
2023-01-29T09:53:32.640Z,74.46
2023-01-29T09:56:06.083Z,74.42
2023-01-29T09:58:38.428Z,74.72
2023-01-29T10:01:22.447Z,74.72
2023-01-29T10:04:11.323Z,74.66
2023-01-29T10:07:10.932Z,74.69
2023-01-29T10:09:58.627Z,74.84
2023-01-29T10:13:02.529Z,74.94
2023-01-29T10:15:38.909Z,74.76
2023-01-29T10:18:15.587Z,74.95
2023-01-29T10:20:59.154Z,74.92
2023-01-29T10:23:31.531Z,74.91
2023-01-29T10:26:01.113Z,74.85
2023-01-29T10:28:47.607Z,75.00
2023-01-29T10:31:25.354Z,75.04
2023-01-29T10:34:03.448Z,75.00
2023-01-29T10:36:42.704Z,75.08
2023-01-29T10:39:19.664Z,75.22
2023-01-29T10:42:05.554Z,75.15
2023-01-29T10:44:59.442Z,75.11
2023-01-29T10:47:49.325Z,75.12
2023-01-29T10:50:26.514Z,75.34
2023-01-29T10:53:03.100Z,75.22
2023-01-29T10:55:54.072Z,75.27
2023-01-29T10:58:26.051Z,75.36
2023-01-29T11:00:53.690Z,75.15
2023-01-29T11:03:30.584Z,75.28
2023-01-29T11:05:58.351Z,75.37
2023-01-29T11:08:33.595Z,75.38
2023-01-29T11:11:12.332Z,75.29
2023-01-29T11:14:06.926Z,75.28
2023-01-29T11:16:43.649Z,75.33
2023-01-29T11:19:11.680Z,75.22
2023-01-29T11:21:51.782Z,75.38
2023-01-29T11:24:19.541Z,75.32
2023-01-29T11:26:49.387Z,75.37
2023-01-29T11:29:48.981Z,75.34
2023-01-29T11:32:19.737Z,75.32
2023-01-29T11:35:05.007Z,75.27
2023-01-29T11:37:39.183Z,75.19
2023-01-29T11:40:35.050Z,75.29
2023-01-29T11:43:34.608Z,75.36
2023-01-29T11:46:11.530Z,75.25
2023-01-29T11:48:51.684Z,75.41
2023-01-29T11:51:28.017Z,75.45
2023-01-29T11:54:00.300Z,75.30
2023-01-29T11:56:39.510Z,75.49
2023-01-29T11:59:27.232Z,75.44
2023-01-29T12:01:55.706Z,75.40
2023-01-29T12:04:26.561Z,75.36
2023-01-29T12:06:54.760Z,75.24
2023-01-29T12:09:29.481Z,75.32
2023-01-29T12:12:36.755Z,75.40
2023-01-29T12:15:05.827Z,75.33
2023-01-29T12:17:37.747Z,75.55
2023-01-29T12:20:13.862Z,75.48
2023-01-29T12:22:57.064Z,75.63
2023-01-29T12:25:45.874Z,75.65
2023-01-29T12:28:44.135Z,75.79
2023-01-29T12:31:17.662Z,75.81
2023-01-29T12:34:02.357Z,75.79
2023-01-29T12:36:47.045Z,75.77
2023-01-29T12:39:17.601Z,75.71
2023-01-29T12:41:53.157Z,75.77
2023-01-29T12:44:37.029Z,75.78
2023-01-29T12:47:08.236Z,75.75
2023-01-29T12:49:39.670Z,75.79
2023-01-29T12:52:07.313Z,76.07
2023-01-29T12:54:42.314Z,75.90
2023-01-29T12:57:42.754Z,75.97
2023-01-29T13:00:42.295Z,76.05
2023-01-29T13:03:31.677Z,76.28
2023-01-29T13:06:09.534Z,76.38
2023-01-29T13:08:43.214Z,76.24
2023-01-29T13:11:17.648Z,76.30
2023-01-29T13:13:54.101Z,76.47
2023-01-29T13:16:30.899Z,76.61
2023-01-29T13:19:24.271Z,76.51
2023-01-29T13:21:54.505Z,76.53
2023-01-29T13:24:25.687Z,76.46
2023-01-29T13:26:53.652Z,76.52
2023-01-29T13:29:23.185Z,76.60
2023-01-29T13:31:56.227Z,76.62
2023-01-29T13:34:23.949Z,76.70
2023-01-29T13:37:01.746Z,76.69
2023-01-29T13:39:44.378Z,76.83
2023-01-29T13:42:21.943Z,76.74
2023-01-29T13:44:53.029Z,76.68
2023-01-29T13:47:26.707Z,76.81
2023-01-29T13:50:07.659Z,76.85
2023-01-29T13:52:44.679Z,76.91
2023-01-29T13:55:15.854Z,76.94
2023-01-29T13:57:43.693Z,77.03
2023-01-29T14:00:33.464Z,77.01
2023-01-29T14:03:01.281Z,77.05
2023-01-29T14:05:29.875Z,76.94
2023-01-29T14:08:02.028Z,77.01
2023-01-29T14:10:32.283Z,77.09
2023-01-29T14:13:17.952Z,77.02
2023-01-29T14:16:06.985Z,77.05
2023-01-29T14:18:36.729Z,77.16
2023-01-29T14:21:21.840Z,77.09
2023-01-29T14:23:52.727Z,77.14
2023-01-29T14:26:45.147Z,77.20
2023-01-29T14:29:14.558Z,77.17
2023-01-29T14:32:00.035Z,77.26
2023-01-29T14:34:27.820Z,77.22
2023-01-29T14:37:23.208Z,77.16
2023-01-29T14:40:25.075Z,77.25
2023-01-29T14:43:20.893Z,77.27
2023-01-29T14:45:49.704Z,77.13
2023-01-29T14:48:39.131Z,77.15
2023-01-29T14:51:11.013Z,77.22
2023-01-29T14:54:03.663Z,77.26
2023-01-29T14:56:36.038Z,77.23
2023-01-29T14:59:21.954Z,77.24
2023-01-29T15:01:55.941Z,77.35
2023-01-29T15:04:28.861Z,77.18
2023-01-29T15:07:04.246Z,77.37
2023-01-29T15:09:55.463Z,77.41
2023-01-29T15:12:42.878Z,77.44
2023-01-29T15:15:33.696Z,77.46
2023-01-29T15:18:20.625Z,77.56
2023-01-29T15:20:48.298Z,77.56
2023-01-29T15:23:33.070Z,77.58
2023-01-29T15:26:04.360Z,77.63
2023-01-29T15:28:34.481Z,77.63
2023-01-29T15:31:05.611Z,77.55
2023-01-29T15:33:38.497Z,77.73
2023-01-29T15:36:08.022Z,77.75
2023-01-29T15:38:36.248Z,77.73
2023-01-29T15:41:21.340Z,77.77
2023-01-29T15:43:56.599Z,77.75
2023-01-29T15:46:33.743Z,77.84
2023-01-29T15:49:08.001Z,77.75
2023-01-29T15:51:36.184Z,77.73
2023-01-29T15:54:08.436Z,77.79
2023-01-29T15:56:40.705Z,77.79
2023-01-29T15:59:17.948Z,77.84
2023-01-29T16:01:45.762Z,77.89
2023-01-29T16:04:20.759Z,77.79
2023-01-29T16:06:51.911Z,77.70
2023-01-29T16:09:23.582Z,77.81
2023-01-29T16:11:53.361Z,77.94
2023-01-29T16:14:25.638Z,77.82
2023-01-29T16:16:53.922Z,77.81
2023-01-29T16:19:28.396Z,77.81
2023-01-29T16:22:02.008Z,77.96
2023-01-29T16:24:32.587Z,77.86
2023-01-29T16:27:07.595Z,77.86
2023-01-29T16:29:35.879Z,77.79
2023-01-29T16:32:05.155Z,77.84
2023-01-29T16:34:38.481Z,77.91
2023-01-29T16:37:17.935Z,77.91
2023-01-29T16:39:48.277Z,77.89
2023-01-29T16:42:20.110Z,77.91
2023-01-29T16:45:05.181Z,77.98
2023-01-29T16:47:36.264Z,77.99
2023-01-29T16:50:23.724Z,78.01
2023-01-29T16:53:01.115Z,78.10
2023-01-29T16:55:46.904Z,77.99
2023-01-29T16:58:21.761Z,77.93
2023-01-29T17:00:58.176Z,78.08
2023-01-29T17:03:28.491Z,78.09
2023-01-29T17:05:56.381Z,78.07
2023-01-29T17:08:34.188Z,77.99
2023-01-29T17:11:02.896Z,77.92
2023-01-29T17:13:40.246Z,77.99
2023-01-29T17:16:48.839Z,78.08
2023-01-29T17:19:20.657Z,77.96
2023-01-29T17:21:48.313Z,78.25
2023-01-29T17:24:16.084Z,78.13
2023-01-29T17:26:43.983Z,78.08
2023-01-29T17:29:19.986Z,78.10
2023-01-29T17:31:47.651Z,78.21
2023-01-29T17:34:16.631Z,78.18
2023-01-29T17:36:44.879Z,78.32
2023-01-29T17:39:20.892Z,78.18
2023-01-29T17:41:51.569Z,78.22
2023-01-29T17:44:19.299Z,78.31
2023-01-29T17:46:47.792Z,78.21
2023-01-29T17:49:25.498Z,78.25
2023-01-29T17:51:54.457Z,78.28
2023-01-29T17:54:23.037Z,78.34
2023-01-29T17:56:51.228Z,78.20
2023-01-29T17:59:21.943Z,78.27
2023-01-29T18:01:51.192Z,78.31
2023-01-29T18:04:18.981Z,78.25
2023-01-29T18:06:49.598Z,78.38
2023-01-29T18:09:22.961Z,78.22
2023-01-29T18:11:51.305Z,78.32
2023-01-29T18:14:19.184Z,78.28
2023-01-29T18:16:47.037Z,78.32
2023-01-29T18:19:31.128Z,78.34
2023-01-29T18:21:58.874Z,78.31
2023-01-29T18:24:26.616Z,78.21
2023-01-29T18:26:54.450Z,78.31
2023-01-29T18:29:22.156Z,78.41
2023-01-29T18:31:49.846Z,78.46
2023-01-29T18:34:17.612Z,78.47
2023-01-29T18:36:47.621Z,78.43
2023-01-29T18:39:15.868Z,78.52
2023-01-29T18:41:44.072Z,78.60
2023-01-29T18:44:11.785Z,78.60
2023-01-29T18:46:39.418Z,78.58
2023-01-29T18:49:07.083Z,78.74
2023-01-29T18:51:34.744Z,78.64
2023-01-29T18:54:02.414Z,78.74
2023-01-29T18:56:30.055Z,78.75
2023-01-29T18:58:57.691Z,78.70
2023-01-29T19:01:27.161Z,78.72
2023-01-29T19:03:56.080Z,78.82
2023-01-29T19:06:23.754Z,78.77
2023-01-29T19:08:51.360Z,78.77
2023-01-29T19:11:19.060Z,78.77
2023-01-29T19:13:47.945Z,78.77
2023-01-29T19:16:15.653Z,78.85
2023-01-29T19:18:43.674Z,78.70
2023-01-29T19:21:15.873Z,78.93
2023-01-29T19:23:44.849Z,78.82
2023-01-29T19:26:13.590Z,78.77
2023-01-29T19:28:41.808Z,78.79
2023-01-29T19:31:09.589Z,78.90
2023-01-29T19:33:39.294Z,78.96
2023-01-29T19:36:07.597Z,78.95
2023-01-29T19:38:38.486Z,78.99
2023-01-29T19:41:06.245Z,79.06
2023-01-29T19:43:33.944Z,79.07
2023-01-29T19:46:01.933Z,79.08
2023-01-29T19:48:29.688Z,78.98
2023-01-29T19:51:04.245Z,79.11
2023-01-29T19:53:32.131Z,79.09
2023-01-29T19:56:02.612Z,79.10
2023-01-29T19:58:31.910Z,78.99
2023-01-29T20:01:04.929Z,79.10
2023-01-29T20:03:33.072Z,79.20
2023-01-29T20:06:06.125Z,79.04
2023-01-29T20:08:35.031Z,79.20
2023-01-29T20:11:04.245Z,79.13
2023-01-29T20:13:32.744Z,79.04
2023-01-29T20:16:05.310Z,79.18
2023-01-29T20:18:32.983Z,79.12
2023-01-29T20:21:06.784Z,79.08
2023-01-29T20:23:37.989Z,79.02
2023-01-29T20:26:08.178Z,79.12
2023-01-29T20:28:36.518Z,79.15
2023-01-29T20:31:05.733Z,79.06
2023-01-29T20:33:35.051Z,79.15
2023-01-29T20:36:05.879Z,79.22
2023-01-29T20:38:34.760Z,79.25
2023-01-29T20:41:04.045Z,79.30
2023-01-29T20:43:32.121Z,79.21
2023-01-29T20:46:00.894Z,79.27
2023-01-29T20:48:28.580Z,79.25
2023-01-29T20:50:56.914Z,79.36
2023-01-29T20:53:24.608Z,79.21
2023-01-29T20:55:52.423Z,79.38
2023-01-29T20:58:20.099Z,79.41
2023-01-29T21:00:47.802Z,79.39
2023-01-29T21:03:15.423Z,79.43
2023-01-29T21:05:43.075Z,79.39
2023-01-29T21:08:11.891Z,79.41
2023-01-29T21:10:39.534Z,79.51
2023-01-29T21:13:07.152Z,79.56
2023-01-29T21:15:34.791Z,79.48
2023-01-29T21:18:04.263Z,79.51
2023-01-29T21:20:32.936Z,79.51
2023-01-29T21:23:04.208Z,79.49
2023-01-29T21:25:33.858Z,79.51
2023-01-29T21:28:04.203Z,79.52
2023-01-29T21:30:32.471Z,79.54
2023-01-29T21:33:00.124Z,79.44
2023-01-29T21:35:27.739Z,79.57
2023-01-29T21:37:55.398Z,79.48
2023-01-29T21:40:26.605Z,79.54
2023-01-29T21:43:10.172Z,79.51
2023-01-29T21:45:39.155Z,79.61
2023-01-29T21:48:07.453Z,79.45
2023-01-29T21:50:35.632Z,79.49
2023-01-29T21:53:03.763Z,79.48
2023-01-29T21:55:32.464Z,79.50
2023-01-29T21:58:00.259Z,79.53
2023-01-29T22:00:28.287Z,79.65
2023-01-29T22:02:56.019Z,79.61
2023-01-29T22:05:24.341Z,79.53
2023-01-29T22:07:52.031Z,79.55
2023-01-29T22:10:20.618Z,79.58
2023-01-29T22:12:48.924Z,79.47
2023-01-29T22:15:16.660Z,79.59
2023-01-29T22:17:44.410Z,79.53
2023-01-29T22:20:13.954Z,79.56
2023-01-29T22:22:42.188Z,79.55
2023-01-29T22:25:10.207Z,79.57
2023-01-29T22:27:38.122Z,79.60
2023-01-29T22:30:06.670Z,79.51
2023-01-29T22:32:34.640Z,79.49
2023-01-29T22:35:02.376Z,79.46
2023-01-29T22:37:30.276Z,79.52
2023-01-29T22:39:57.959Z,79.55
2023-01-29T22:42:25.625Z,79.62
2023-01-29T22:44:53.509Z,79.56
2023-01-29T22:47:21.133Z,79.56
2023-01-29T22:49:53.215Z,79.50
2023-01-29T22:52:22.486Z,79.55
2023-01-29T22:54:51.472Z,79.52
2023-01-29T22:57:19.721Z,79.52
2023-01-29T22:59:47.386Z,79.45
2023-01-29T23:02:15.104Z,79.55
2023-01-29T23:04:43.158Z,79.62
2023-01-29T23:07:11.270Z,79.55
2023-01-29T23:09:38.963Z,79.65
2023-01-29T23:12:07.824Z,79.58
2023-01-29T23:14:35.512Z,79.62
2023-01-29T23:17:03.215Z,79.75
2023-01-29T23:19:30.874Z,79.68
2023-01-29T23:21:58.500Z,79.69
2023-01-29T23:24:26.161Z,79.67
2023-01-29T23:27:09.761Z,79.82
2023-01-29T23:29:37.417Z,79.75
2023-01-29T23:32:05.387Z,79.76
2023-01-29T23:34:33.040Z,79.68
2023-01-29T23:37:00.693Z,79.71
2023-01-29T23:39:28.415Z,79.81
2023-01-29T23:41:56.077Z,79.68
2023-01-29T23:44:23.845Z,79.79
2023-01-29T23:46:51.560Z,79.80
2023-01-29T23:49:19.402Z,79.77
2023-01-29T23:51:48.898Z,79.79
2023-01-29T23:54:17.511Z,79.83
2023-01-29T23:56:45.608Z,79.73
2023-01-29T23:59:13.355Z,79.68
